Bay City, Oregon
Current Conditions -  °F | °C
As of 12:35 AM on Friday 24 Oct 2014 (Local Time) from KTMK Reporting Station
Overcast Overcast  
Wind Chill: 11°   Ceiling: 6000
Heat Index: 11°   Visibility: 10mi
Dew Point: 11°   Wind: 3mph
Humidity: 100%   Direction: 90°E
Pressure: 30.02"   Gusts: NA
Location:  45.52°N, 123.89°W
Report Text: KTMK 240735Z AUTO 09003KT 10SM SCT024 BKN060 OVC075 11/11 A3002 RMK AO2 P0005
Loading
Personal Weather Stations






























Interactive Weather Map
Tropical Storm Tracking
New forecast layout! Learn more

10-Day Weather Forecast

Advertisements
Track Severe Weather on mobile